Wetterdaten: Sonntag, 18.10.2015
Datum Zeit Auen-Temp. Temp gefhlt Luftfeuchte Luftdruck Regen Wind Richtung Richtung Taupunkt Windben
18.10.2015 00:00 4,0 C 3,8 C 91 % 1015,8 hPa 0,0 mm 0,0 km/h (0 Bft) S-SO 157 2,7 C 0,0 km/h (0 Bft)
18.10.2015 00:05 3,9 C 3,7 C 92 % 1015,8 hPa 0,0 mm 0,0 km/h (0 Bft) S-SO 157 2,7 C 0,0 km/h (0 Bft)
18.10.2015 00:10 4,0 C 3,8 C 92 % 1015,6 hPa 0,0 mm 0,3 km/h (0 Bft) SO 135 2,8 C 0,0 km/h (0 Bft)
18.10.2015 00:15 3,9 C 3,7 C 92 % 1015,6 hPa 0,0 mm 0,3 km/h (0 Bft) SO 135 2,7 C 0,0 km/h (0 Bft)
18.10.2015 00:20 3,8 C 3,7 C 88 % 1015,6 hPa 0,0 mm 0,0 km/h (0 Bft) SO 135 2,0 C 0,0 km/h (0 Bft)
18.10.2015 00:25 3,8 C 3,8 C 89 % 1015,6 hPa 0,0 mm 0,0 km/h (0 Bft) O 90 2,2 C 2,6 km/h (1 Bft)
18.10.2015 00:30 4,0 C 3,8 C 92 % 1015,5 hPa 0,0 mm 0,3 km/h (0 Bft) O 90 2,8 C 0,0 km/h (0 Bft)
18.10.2015 00:35 3,8 C 3,8 C 89 % 1015,5 hPa 0,0 mm 0,3 km/h (0 Bft) O-NO 67 2,2 C 0,0 km/h (0 Bft)
18.10.2015 00:40 4,0 C 3,8 C 92 % 1015,5 hPa 0,0 mm 0,3 km/h (0 Bft) O-SO 112 2,8 C 0,0 km/h (0 Bft)
18.10.2015 00:45 4,0 C 3,8 C 92 % 1015,5 hPa 0,0 mm 0,3 km/h (0 Bft) N-NO 22 2,8 C 0,0 km/h (0 Bft)
18.10.2015 00:50 4,0 C 3,9 C 92 % 1015,4 hPa 0,0 mm 0,0 km/h (0 Bft) O-NO 67 2,8 C 0,0 km/h (0 Bft)
18.10.2015 00:55 4,0 C 3,9 C 92 % 1015,4 hPa 0,0 mm 0,0 km/h (0 Bft) NO 45 2,8 C 2,8 km/h (1 Bft)
18.10.2015 01:00 4,0 C 3,9 C 88 % 1015,4 hPa 0,0 mm 0,5 km/h (0 Bft) O-NO 67 2,2 C 3,6 km/h (1 Bft)
18.10.2015 01:05 4,1 C 3,9 C 92 % 1015,4 hPa 0,0 mm 1,3 km/h (1 Bft) N-NO 22 2,9 C 2,6 km/h (1 Bft)
18.10.2015 01:10 4,1 C 4,0 C 92 % 1015,3 hPa 0,0 mm 1,3 km/h (1 Bft) NO 45 2,9 C 4,9 km/h (1 Bft)
18.10.2015 01:15 4,1 C 4,0 C 92 % 1015,3 hPa 0,0 mm 0,5 km/h (0 Bft) O-NO 67 2,9 C 0,0 km/h (0 Bft)
18.10.2015 01:20 4,0 C 3,9 C 92 % 1015,3 hPa 0,0 mm 0,3 km/h (0 Bft) O-SO 112 2,8 C 0,0 km/h (0 Bft)
18.10.2015 01:25 4,0 C 3,9 C 92 % 1015,3 hPa 0,0 mm 0,3 km/h (0 Bft) O-NO 67 2,8 C 0,0 km/h (0 Bft)
18.10.2015 01:30 4,0 C 3,8 C 92 % 1015,4 hPa 0,0 mm 0,3 km/h (0 Bft) O-SO 112 2,8 C 0,0 km/h (0 Bft)
18.10.2015 01:35 3,9 C 3,8 C 92 % 1015,4 hPa 0,0 mm 0,0 km/h (0 Bft) O-SO 112 2,7 C 0,0 km/h (0 Bft)
18.10.2015 01:40 3,8 C 3,7 C 89 % 1015,4 hPa 0,0 mm 0,0 km/h (0 Bft) O-NO 67 2,2 C 0,0 km/h (0 Bft)
18.10.2015 01:45 3,8 C 3,6 C 92 % 1015,4 hPa 0,0 mm 0,0 km/h (0 Bft) N-NO 22 2,6 C 0,0 km/h (0 Bft)
18.10.2015 01:50 3,8 C 3,6 C 92 % 1015,1 hPa 0,0 mm 0,0 km/h (0 Bft) N-NO 22 2,6 C 0,0 km/h (0 Bft)
18.10.2015 01:55 3,8 C 3,6 C 92 % 1015,1 hPa 0,0 mm 0,0 km/h (0 Bft) N-NO 22 2,6 C 0,0 km/h (0 Bft)
18.10.2015 01:58 3,8 C 3,6 C 92 % 1015,1 hPa 0,0 mm 0,0 km/h (0 Bft) N-NO 22 2,6 C 0,0 km/h (0 Bft)
18.10.2015 02:00 3,8 C 3,7 C 92 % 1015,1 hPa 0,0 mm 0,0 km/h (0 Bft) N-NO 22 2,6 C 0,0 km/h (0 Bft)
18.10.2015 02:05 3,8 C 3,7 C 89 % 1015,1 hPa 0,0 mm 0,0 km/h (0 Bft) N-NO 22 2,2 C 0,0 km/h (0 Bft)
18.10.2015 02:10 3,8 C 3,8 C 89 % 1015,3 hPa 0,0 mm 0,0 km/h (0 Bft) N-NO 22 2,2 C 0,0 km/h (0 Bft)
18.10.2015 02:15 3,8 C 3,8 C 89 % 1015,3 hPa 0,0 mm 0,0 km/h (0 Bft) N-NO 22 2,2 C 0,0 km/h (0 Bft)
18.10.2015 02:20 3,8 C 3,8 C 89 % 1015,3 hPa 0,0 mm 0,0 km/h (0 Bft) N-NO 22 2,2 C 0,0 km/h (0 Bft)
18.10.2015 02:25 3,8 C 3,8 C 89 % 1015,3 hPa 0,0 mm 0,0 km/h (0 Bft) N-NO 22 2,2 C 0,0 km/h (0 Bft)
18.10.2015 02:30 3,8 C 3,8 C 89 % 1015,2 hPa 0,0 mm 0,0 km/h (0 Bft) N-NO 22 2,2 C 0,0 km/h (0 Bft)
18.10.2015 02:35 3,8 C 3,8 C 89 % 1015,2 hPa 0,0 mm 0,0 km/h (0 Bft) NO 45 2,2 C 0,0 km/h (0 Bft)
18.10.2015 02:40 3,8 C 3,8 C 89 % 1015,2 hPa 0,0 mm 0,0 km/h (0 Bft) N-NO 22 2,2 C 0,0 km/h (0 Bft)
18.10.2015 02:45 4,0 C 3,9 C 92 % 1015,2 hPa 0,0 mm 0,0 km/h (0 Bft) N-NO 22 2,8 C 0,0 km/h (0 Bft)
18.10.2015 02:50 4,0 C 3,9 C 92 % 1015,3 hPa 0,0 mm 0,0 km/h (0 Bft) O-SO 112 2,8 C 0,0 km/h (0 Bft)
18.10.2015 02:55 3,8 C 3,8 C 89 % 1015,3 hPa 0,0 mm 0,0 km/h (0 Bft) O-NO 67 2,2 C 0,0 km/h (0 Bft)
18.10.2015 03:00 3,8 C 3,8 C 89 % 1015,3 hPa 0,0 mm 0,0 km/h (0 Bft) O-SO 112 2,2 C 0,0 km/h (0 Bft)
18.10.2015 03:05 3,8 C 3,8 C 89 % 1015,3 hPa 0,0 mm 0,0 km/h (0 Bft) W-SW 247 2,2 C 0,0 km/h (0 Bft)
18.10.2015 03:10 3,8 C 3,7 C 89 % 1015,2 hPa 0,0 mm 0,0 km/h (0 Bft) SW 225 2,2 C 0,0 km/h (0 Bft)
18.10.2015 03:15 3,8 C 3,7 C 89 % 1015,2 hPa 0,0 mm 0,0 km/h (0 Bft) S-SO 157 2,2 C 0,0 km/h (0 Bft)
18.10.2015 03:20 3,8 C 3,7 C 89 % 1015,2 hPa 0,0 mm 0,0 km/h (0 Bft) S-SW 202 2,2 C 0,0 km/h (0 Bft)
18.10.2015 03:25 3,8 C 3,7 C 89 % 1015,2 hPa 0,0 mm 0,0 km/h (0 Bft) SO 135 2,2 C 0,0 km/h (0 Bft)
18.10.2015 03:30 3,8 C 3,8 C 89 % 1015,1 hPa 0,7 mm 0,0 km/h (0 Bft) O-NO 67 2,2 C 0,0 km/h (0 Bft)
18.10.2015 03:35 3,8 C 3,7 C 89 % 1015,1 hPa 0,0 mm 0,0 km/h (0 Bft) O-SO 112 2,2 C 0,0 km/h (0 Bft)
18.10.2015 03:40 3,8 C 3,7 C 93 % 1015,1 hPa 0,0 mm 0,0 km/h (0 Bft) O-SO 112 2,8 C 0,0 km/h (0 Bft)
18.10.2015 03:45 3,8 C 3,7 C 93 % 1015,1 hPa 0,0 mm 0,0 km/h (0 Bft) O-NO 67 2,8 C 0,0 km/h (0 Bft)
18.10.2015 03:50 3,8 C 3,6 C 93 % 1014,9 hPa 0,0 mm 0,0 km/h (0 Bft) N-NO 22 2,8 C 0,0 km/h (0 Bft)
18.10.2015 03:55 3,7 C 3,6 C 89 % 1014,9 hPa 0,0 mm 0,0 km/h (0 Bft) O-NO 67 2,1 C 0,0 km/h (0 Bft)
18.10.2015 04:00 3,7 C 3,6 C 89 % 1014,9 hPa 0,0 mm 0,0 km/h (0 Bft) O-NO 67 2,1 C 0,0 km/h (0 Bft)
18.10.2015 04:05 3,7 C 3,6 C 89 % 1014,9 hPa 0,0 mm 0,0 km/h (0 Bft) O-NO 67 2,1 C 0,0 km/h (0 Bft)
18.10.2015 04:10 3,7 C 3,6 C 89 % 1014,8 hPa 0,0 mm 0,0 km/h (0 Bft) O-NO 67 2,1 C 0,0 km/h (0 Bft)
18.10.2015 04:15 3,7 C 3,6 C 89 % 1014,8 hPa 0,0 mm 0,0 km/h (0 Bft) SO 135 2,1 C 0,0 km/h (0 Bft)
18.10.2015 04:20 3,7 C 3,6 C 89 % 1014,8 hPa 0,0 mm 0,5 km/h (0 Bft) O-NO 67 2,1 C 2,8 km/h (1 Bft)
18.10.2015 04:25 3,7 C 3,7 C 89 % 1014,8 hPa 0,0 mm 0,8 km/h (0 Bft) NO 45 2,1 C 3,6 km/h (1 Bft)
18.10.2015 04:30 3,8 C 3,7 C 93 % 1014,8 hPa 0,0 mm 1,0 km/h (0 Bft) S 180 2,8 C 0,0 km/h (0 Bft)
18.10.2015 04:35 3,7 C 3,7 C 89 % 1014,8 hPa 0,0 mm 1,0 km/h (0 Bft) NO 45 2,1 C 0,0 km/h (0 Bft)
18.10.2015 04:40 3,7 C 3,7 C 89 % 1014,8 hPa 0,0 mm 0,5 km/h (0 Bft) N-NO 22 2,1 C 0,0 km/h (0 Bft)
18.10.2015 04:45 3,8 C 3,7 C 89 % 1014,8 hPa 0,0 mm 0,0 km/h (0 Bft) N-NO 22 2,2 C 0,0 km/h (0 Bft)
18.10.2015 04:50 3,8 C 3,7 C 89 % 1014,9 hPa 0,0 mm 0,0 km/h (0 Bft) N-NO 22 2,2 C 0,0 km/h (0 Bft)
18.10.2015 04:55 3,8 C 3,8 C 89 % 1014,9 hPa 0,0 mm 0,0 km/h (0 Bft) O-NO 67 2,2 C 0,0 km/h (0 Bft)
18.10.2015 05:00 3,8 C 3,7 C 93 % 1014,9 hPa 0,0 mm 0,0 km/h (0 Bft) NO 45 2,8 C 0,0 km/h (0 Bft)
18.10.2015 05:05 3,7 C 3,7 C 89 % 1014,9 hPa 0,0 mm 0,0 km/h (0 Bft) NO 45 2,1 C 2,8 km/h (1 Bft)
18.10.2015 05:10 3,7 C 3,7 C 89 % 1014,9 hPa 0,0 mm 0,0 km/h (0 Bft) NO 45 2,1 C 0,0 km/h (0 Bft)
18.10.2015 05:15 3,7 C 3,7 C 89 % 1014,9 hPa 0,0 mm 0,0 km/h (0 Bft) O-NO 67 2,1 C 0,0 km/h (0 Bft)
18.10.2015 05:20 3,7 C 3,7 C 89 % 1014,9 hPa 0,0 mm 0,0 km/h (0 Bft) O 90 2,1 C 0,0 km/h (0 Bft)
18.10.2015 05:25 3,7 C 3,7 C 89 % 1014,9 hPa 0,0 mm 0,0 km/h (0 Bft) N-NO 22 2,1 C 0,0 km/h (0 Bft)
18.10.2015 05:30 3,8 C 3,7 C 89 % 1015,0 hPa 0,0 mm 0,0 km/h (0 Bft) N-NO 22 2,2 C 0,0 km/h (0 Bft)
18.10.2015 05:35 3,8 C 3,7 C 89 % 1015,0 hPa 0,0 mm 0,0 km/h (0 Bft) N-NO 22 2,2 C 0,0 km/h (0 Bft)
18.10.2015 05:40 3,8 C 3,8 C 89 % 1015,0 hPa 0,0 mm 0,0 km/h (0 Bft) N-NO 22 2,2 C 0,0 km/h (0 Bft)
18.10.2015 05:45 3,8 C 3,8 C 89 % 1015,0 hPa 0,0 mm 0,0 km/h (0 Bft) N-NO 22 2,2 C 0,0 km/h (0 Bft)
18.10.2015 05:50 3,8 C 3,8 C 89 % 1014,9 hPa 0,0 mm 0,0 km/h (0 Bft) N-NO 22 2,2 C 0,0 km/h (0 Bft)
18.10.2015 05:55 3,8 C 3,9 C 89 % 1014,9 hPa 0,0 mm 0,0 km/h (0 Bft) N-NW 337 2,2 C 0,0 km/h (0 Bft)
18.10.2015 06:00 3,8 C 3,9 C 89 % 1014,9 hPa 0,0 mm 0,0 km/h (0 Bft) N-NW 337 2,2 C 0,0 km/h (0 Bft)
18.10.2015 06:05 3,8 C 3,9 C 89 % 1014,9 hPa 0,0 mm 0,0 km/h (0 Bft) N-NW 337 2,2 C 0,0 km/h (0 Bft)
18.10.2015 06:10 4,0 C 3,9 C 93 % 1015,1 hPa 0,0 mm 0,0 km/h (0 Bft) N-NW 337 3,0 C 0,0 km/h (0 Bft)
18.10.2015 06:15 4,0 C 3,9 C 93 % 1015,1 hPa 0,0 mm 0,0 km/h (0 Bft) N-NW 337 3,0 C 0,0 km/h (0 Bft)
18.10.2015 06:20 4,0 C 3,9 C 93 % 1015,1 hPa 0,0 mm 0,0 km/h (0 Bft) N-NW 337 3,0 C 0,0 km/h (0 Bft)
18.10.2015 06:25 4,0 C 4,0 C 89 % 1015,1 hPa 0,0 mm 0,0 km/h (0 Bft) N-NW 337 2,4 C 0,0 km/h (0 Bft)
18.10.2015 06:30 4,0 C 4,0 C 89 % 1015,1 hPa 0,0 mm 0,0 km/h (0 Bft) N-NW 337 2,4 C 0,0 km/h (0 Bft)
18.10.2015 06:35 4,0 C 4,0 C 89 % 1015,1 hPa 0,0 mm 0,0 km/h (0 Bft) N 360 2,4 C 0,0 km/h (0 Bft)
18.10.2015 06:40 4,0 C 4,0 C 89 % 1015,1 hPa 0,0 mm 0,0 km/h (0 Bft) W-SW 247 2,4 C 0,0 km/h (0 Bft)
18.10.2015 06:45 4,0 C 4,0 C 89 % 1015,1 hPa 0,0 mm 0,0 km/h (0 Bft) NW 315 2,4 C 0,0 km/h (0 Bft)
18.10.2015 06:50 4,0 C 3,9 C 93 % 1015,1 hPa 0,0 mm 0,0 km/h (0 Bft) SO 135 3,0 C 0,0 km/h (0 Bft)
18.10.2015 06:55 4,0 C 3,9 C 93 % 1015,1 hPa 0,7 mm 0,0 km/h (0 Bft) NW 315 3,0 C 0,0 km/h (0 Bft)
18.10.2015 07:00 4,0 C 3,9 C 93 % 1015,1 hPa 0,0 mm 0,3 km/h (0 Bft) S 180 3,0 C 0,0 km/h (0 Bft)
18.10.2015 07:05 4,0 C 3,9 C 93 % 1015,1 hPa 0,0 mm 0,3 km/h (0 Bft) SO 135 3,0 C 0,0 km/h (0 Bft)
18.10.2015 07:10 4,0 C 3,9 C 89 % 1015,1 hPa 0,0 mm 0,0 km/h (0 Bft) SO 135 2,4 C 0,0 km/h (0 Bft)
18.10.2015 07:15 4,0 C 3,9 C 93 % 1015,1 hPa 0,0 mm 0,0 km/h (0 Bft) SO 135 3,0 C 0,0 km/h (0 Bft)
18.10.2015 07:20 4,0 C 3,9 C 93 % 1015,1 hPa 0,0 mm 0,0 km/h (0 Bft) SO 135 3,0 C 0,0 km/h (0 Bft)
18.10.2015 07:25 4,0 C 4,0 C 89 % 1015,1 hPa 0,0 mm 0,0 km/h (0 Bft) O-SO 112 2,4 C 0,0 km/h (0 Bft)
18.10.2015 07:30 4,0 C 3,9 C 89 % 1015,1 hPa 0,0 mm 0,0 km/h (0 Bft) S 180 2,4 C 0,0 km/h (0 Bft)
18.10.2015 07:35 4,0 C 3,9 C 89 % 1015,1 hPa 0,0 mm 0,0 km/h (0 Bft) S 180 2,4 C 0,0 km/h (0 Bft)
18.10.2015 07:40 4,0 C 3,9 C 89 % 1015,1 hPa 0,0 mm 0,0 km/h (0 Bft) O-SO 112 2,4 C 0,0 km/h (0 Bft)
18.10.2015 07:45 4,0 C 3,9 C 89 % 1015,1 hPa 0,0 mm 0,0 km/h (0 Bft) O-SO 112 2,4 C 0,0 km/h (0 Bft)
18.10.2015 07:50 4,0 C 4,0 C 89 % 1015,2 hPa 0,0 mm 0,0 km/h (0 Bft) O-SO 112 2,4 C 0,0 km/h (0 Bft)
18.10.2015 07:55 4,0 C 4,0 C 89 % 1015,2 hPa 0,7 mm 0,0 km/h (0 Bft) SO 135 2,4 C 0,0 km/h (0 Bft)
18.10.2015 07:59 4,0 C 4,0 C 89 % 1015,2 hPa 0,0 mm 0,0 km/h (0 Bft) SO 135 2,4 C 0,0 km/h (0 Bft)
18.10.2015 08:05 4,1 C 4,0 C 93 % 1015,2 hPa 0,0 mm 0,0 km/h (0 Bft) SO 135 3,1 C 0,0 km/h (0 Bft)
18.10.2015 08:10 4,1 C 4,0 C 93 % 1015,3 hPa 0,0 mm 0,0 km/h (0 Bft) SO 135 3,1 C 0,0 km/h (0 Bft)
18.10.2015 08:15 4,1 C 4,0 C 93 % 1015,3 hPa 0,0 mm 0,0 km/h (0 Bft) SO 135 3,1 C 0,0 km/h (0 Bft)
18.10.2015 08:20 4,1 C 4,0 C 93 % 1015,3 hPa 0,0 mm 0,0 km/h (0 Bft) SO 135 3,1 C 0,0 km/h (0 Bft)
18.10.2015 08:25 4,1 C 4,1 C 89 % 1015,3 hPa 0,0 mm 0,0 km/h (0 Bft) SO 135 2,5 C 0,0 km/h (0 Bft)
18.10.2015 08:30 4,1 C 4,1 C 89 % 1015,4 hPa 0,0 mm 0,0 km/h (0 Bft) SO 135 2,5 C 0,0 km/h (0 Bft)
18.10.2015 08:35 4,1 C 4,1 C 89 % 1015,4 hPa 0,0 mm 0,0 km/h (0 Bft) SO 135 2,5 C 0,0 km/h (0 Bft)
18.10.2015 08:40 4,2 C 4,1 C 93 % 1015,4 hPa 0,0 mm 0,0 km/h (0 Bft) O-SO 112 3,2 C 0,0 km/h (0 Bft)
18.10.2015 08:45 4,2 C 4,2 C 89 % 1015,4 hPa 0,0 mm 0,0 km/h (0 Bft) O-SO 112 2,6 C 0,0 km/h (0 Bft)
18.10.2015 08:50 4,2 C 4,2 C 89 % 1015,2 hPa 0,0 mm 0,0 km/h (0 Bft) O-SO 112 2,6 C 0,0 km/h (0 Bft)
18.10.2015 08:55 4,2 C 4,2 C 89 % 1015,2 hPa 0,0 mm 0,0 km/h (0 Bft) S-SO 157 2,6 C 0,0 km/h (0 Bft)
18.10.2015 09:00 4,3 C 4,3 C 89 % 1015,2 hPa 0,0 mm 0,0 km/h (0 Bft) S-SO 157 2,7 C 0,0 km/h (0 Bft)
18.10.2015 09:05 4,3 C 4,4 C 89 % 1015,2 hPa 0,0 mm 0,0 km/h (0 Bft) S-SO 157 2,7 C 0,0 km/h (0 Bft)
18.10.2015 09:10 4,3 C 4,4 C 89 % 1015,4 hPa 0,0 mm 0,0 km/h (0 Bft) W 270 2,7 C 0,0 km/h (0 Bft)
18.10.2015 09:15 4,4 C 4,4 C 89 % 1015,4 hPa 0,0 mm 0,0 km/h (0 Bft) W 270 2,7 C 0,0 km/h (0 Bft)
18.10.2015 09:20 4,4 C 4,5 C 89 % 1015,4 hPa 0,0 mm 0,0 km/h (0 Bft) W 270 2,7 C 0,0 km/h (0 Bft)
18.10.2015 09:25 4,4 C 4,5 C 89 % 1015,4 hPa 0,0 mm 0,0 km/h (0 Bft) W-NW 292 2,7 C 0,0 km/h (0 Bft)
18.10.2015 09:30 4,4 C 4,5 C 89 % 1015,4 hPa 0,0 mm 0,0 km/h (0 Bft) W-NW 292 2,7 C 0,0 km/h (0 Bft)
18.10.2015 09:35 4,4 C 4,5 C 89 % 1015,4 hPa 0,0 mm 0,0 km/h (0 Bft) W-NW 292 2,7 C 0,0 km/h (0 Bft)
18.10.2015 09:40 4,5 C 4,6 C 89 % 1015,4 hPa 0,0 mm 0,0 km/h (0 Bft) S 180 2,8 C 0,0 km/h (0 Bft)
18.10.2015 09:45 4,5 C 4,6 C 89 % 1015,4 hPa 0,0 mm 0,0 km/h (0 Bft) S 180 2,8 C 0,0 km/h (0 Bft)
18.10.2015 09:50 4,6 C 4,8 C 89 % 1015,4 hPa 0,0 mm 0,0 km/h (0 Bft) N-NW 337 2,9 C 0,0 km/h (0 Bft)
18.10.2015 09:55 4,6 C 4,9 C 89 % 1015,4 hPa 0,0 mm 0,0 km/h (0 Bft) NW 315 2,9 C 0,0 km/h (0 Bft)
18.10.2015 10:00 4,8 C 5,1 C 89 % 1015,4 hPa 0,0 mm 0,0 km/h (0 Bft) NW 315 3,1 C 0,0 km/h (0 Bft)
18.10.2015 10:05 4,9 C 5,2 C 90 % 1015,4 hPa 0,0 mm 0,3 km/h (0 Bft) NW 315 3,4 C 3,1 km/h (1 Bft)
18.10.2015 10:10 5,0 C 5,3 C 89 % 1015,5 hPa 0,0 mm 0,3 km/h (0 Bft) N-NW 337 3,3 C 0,0 km/h (0 Bft)
18.10.2015 10:15 5,1 C 5,4 C 89 % 1015,5 hPa 0,0 mm 0,3 km/h (0 Bft) W-NW 292 3,4 C 0,0 km/h (0 Bft)
18.10.2015 10:20 5,1 C 5,6 C 89 % 1015,5 hPa 0,0 mm 0,3 km/h (0 Bft) NW 315 3,4 C 0,0 km/h (0 Bft)
18.10.2015 10:25 5,1 C 5,6 C 89 % 1015,5 hPa 0,0 mm 0,0 km/h (0 Bft) N-NO 22 3,4 C 0,0 km/h (0 Bft)
18.10.2015 10:30 5,2 C 5,8 C 89 % 1015,5 hPa 0,0 mm 0,0 km/h (0 Bft) N-NO 22 3,5 C 0,0 km/h (0 Bft)
18.10.2015 10:35 5,4 C 6,0 C 89 % 1015,5 hPa 0,0 mm 0,3 km/h (0 Bft) N-NO 22 3,7 C 0,0 km/h (0 Bft)
18.10.2015 10:40 5,5 C 6,1 C 89 % 1015,5 hPa 0,0 mm 0,3 km/h (0 Bft) N-NW 337 3,8 C 0,0 km/h (0 Bft)
18.10.2015 10:45 5,5 C 6,3 C 89 % 1015,5 hPa 0,0 mm 0,3 km/h (0 Bft) W-NW 292 3,8 C 0,0 km/h (0 Bft)
18.10.2015 10:50 5,6 C 6,2 C 89 % 1015,6 hPa 0,0 mm 0,0 km/h (0 Bft) NW 315 3,9 C 0,0 km/h (0 Bft)
18.10.2015 10:55 5,6 C 6,1 C 89 % 1015,6 hPa 0,0 mm 0,0 km/h (0 Bft) N-NO 22 3,9 C 0,0 km/h (0 Bft)
18.10.2015 11:00 5,6 C 6,0 C 89 % 1015,6 hPa 0,0 mm 0,0 km/h (0 Bft) N-NO 22 3,9 C 0,0 km/h (0 Bft)
18.10.2015 11:05 5,7 C 6,1 C 89 % 1015,6 hPa 0,0 mm 0,0 km/h (0 Bft) N-NO 22 4,0 C 0,0 km/h (0 Bft)
18.10.2015 11:10 5,7 C 6,0 C 89 % 1015,5 hPa 0,0 mm 0,0 km/h (0 Bft) N-NW 337 4,0 C 0,0 km/h (0 Bft)
18.10.2015 11:15 5,7 C 5,8 C 89 % 1015,5 hPa 0,0 mm 0,0 km/h (0 Bft) N-NO 22 4,0 C 0,0 km/h (0 Bft)
18.10.2015 11:20 5,7 C 5,8 C 89 % 1015,5 hPa 0,0 mm 0,0 km/h (0 Bft) N-NO 22 4,0 C 0,0 km/h (0 Bft)
18.10.2015 11:25 5,7 C 6,0 C 89 % 1015,5 hPa 0,0 mm 0,0 km/h (0 Bft) N-NO 22 4,0 C 0,0 km/h (0 Bft)
18.10.2015 11:30 5,7 C 6,0 C 89 % 1015,6 hPa 0,0 mm 0,3 km/h (0 Bft) NO 45 4,0 C 2,8 km/h (1 Bft)
18.10.2015 11:35 5,8 C 5,9 C 89 % 1015,6 hPa 0,7 mm 0,3 km/h (0 Bft) NO 45 4,1 C 0,0 km/h (0 Bft)
18.10.2015 11:40 5,8 C 5,9 C 89 % 1015,6 hPa 0,0 mm 0,3 km/h (0 Bft) O-NO 67 4,1 C 0,0 km/h (0 Bft)
18.10.2015 11:45 5,7 C 5,9 C 89 % 1015,6 hPa 0,0 mm 0,0 km/h (0 Bft) O-NO 67 4,0 C 0,0 km/h (0 Bft)
18.10.2015 11:50 5,7 C 5,9 C 89 % 1015,4 hPa 0,0 mm 0,0 km/h (0 Bft) O-NO 67 4,0 C 0,0 km/h (0 Bft)
18.10.2015 11:55 5,8 C 6,0 C 89 % 1015,4 hPa 0,0 mm 0,0 km/h (0 Bft) NO 45 4,1 C 0,0 km/h (0 Bft)
18.10.2015 12:00 5,8 C 6,0 C 89 % 1015,4 hPa 0,0 mm 0,0 km/h (0 Bft) NO 45 4,1 C 0,0 km/h (0 Bft)
18.10.2015 12:05 5,8 C 6,0 C 89 % 1015,4 hPa 0,0 mm 1,0 km/h (0 Bft) N-NO 22 4,1 C 0,0 km/h (0 Bft)
18.10.2015 12:10 5,9 C 6,1 C 89 % 1015,6 hPa 0,0 mm 1,3 km/h (1 Bft) NO 45 4,2 C 0,0 km/h (0 Bft)
18.10.2015 12:15 5,9 C 6,0 C 89 % 1015,6 hPa 0,0 mm 1,0 km/h (0 Bft) NO 45 4,2 C 0,0 km/h (0 Bft)
18.10.2015 12:20 5,9 C 6,2 C 89 % 1015,6 hPa 0,0 mm 1,3 km/h (1 Bft) N-NO 22 4,2 C 3,1 km/h (1 Bft)
18.10.2015 12:25 6,0 C 6,1 C 88 % 1015,6 hPa 0,0 mm 0,8 km/h (0 Bft) N-NO 22 4,2 C 0,0 km/h (0 Bft)
18.10.2015 12:30 6,0 C 6,1 C 88 % 1015,6 hPa 0,0 mm 0,5 km/h (0 Bft) N 360 4,2 C 0,0 km/h (0 Bft)
18.10.2015 12:35 6,0 C 6,2 C 88 % 1015,6 hPa 0,0 mm 0,3 km/h (0 Bft) N-NO 22 4,2 C 0,0 km/h (0 Bft)
18.10.2015 12:40 6,0 C 6,2 C 88 % 1015,6 hPa 0,0 mm 0,3 km/h (0 Bft) N-NW 337 4,2 C 0,0 km/h (0 Bft)
18.10.2015 12:45 6,1 C 6,2 C 88 % 1015,6 hPa 0,0 mm 0,0 km/h (0 Bft) W 270 4,3 C 2,8 km/h (1 Bft)
18.10.2015 12:50 6,1 C 6,3 C 88 % 1015,5 hPa 0,7 mm 0,3 km/h (0 Bft) N 360 4,3 C 3,1 km/h (1 Bft)
18.10.2015 12:55 6,0 C 6,2 C 88 % 1015,5 hPa 0,0 mm 0,8 km/h (0 Bft) NO 45 4,2 C 0,0 km/h (0 Bft)
18.10.2015 13:00 6,0 C 6,2 C 88 % 1015,5 hPa 0,0 mm 0,8 km/h (0 Bft) N-NW 337 4,2 C 0,0 km/h (0 Bft)
18.10.2015 13:05 6,1 C 6,4 C 88 % 1015,5 hPa 0,0 mm 0,0 km/h (0 Bft) NW 315 4,3 C 0,0 km/h (0 Bft)
18.10.2015 13:10 6,1 C 6,4 C 88 % 1015,6 hPa 0,0 mm 0,0 km/h (0 Bft) NW 315 4,3 C 0,0 km/h (0 Bft)
18.10.2015 13:15 6,0 C 6,1 C 88 % 1015,6 hPa 0,0 mm 2,1 km/h (1 Bft) NW 315 4,2 C 3,1 km/h (1 Bft)
18.10.2015 13:20 5,9 C 6,0 C 88 % 1015,6 hPa 0,0 mm 3,6 km/h (1 Bft) N-NO 22 4,1 C 9,3 km/h (2 Bft)
18.10.2015 13:25 5,8 C 5,8 C 88 % 1015,6 hPa 0,7 mm 3,9 km/h (1 Bft) NW 315 4,0 C 6,0 km/h (2 Bft)
18.10.2015 13:30 5,8 C 5,7 C 88 % 1015,5 hPa 0,0 mm 3,9 km/h (1 Bft) W 270 4,0 C 0,0 km/h (0 Bft)
18.10.2015 13:35 5,8 C 5,8 C 88 % 1015,5 hPa 0,0 mm 2,1 km/h (1 Bft) W 270 4,0 C 0,0 km/h (0 Bft)
18.10.2015 13:40 5,8 C 5,8 C 88 % 1015,5 hPa 0,0 mm 2,6 km/h (1 Bft) W-NW 292 4,0 C 11,1 km/h (2 Bft)
18.10.2015 13:45 5,7 C 5,6 C 88 % 1015,5 hPa 0,0 mm 4,9 km/h (1 Bft) NW 315 3,9 C 0,0 km/h (0 Bft)
18.10.2015 13:50 5,7 C 5,7 C 88 % 1015,2 hPa 0,0 mm 3,6 km/h (1 Bft) W-NW 292 3,9 C 11,4 km/h (2 Bft)
18.10.2015 13:55 5,6 C 5,7 C 88 % 1015,2 hPa 0,7 mm 2,8 km/h (1 Bft) SW 225 3,8 C 3,6 km/h (1 Bft)
18.10.2015 13:59 5,6 C 5,5 C 88 % 1015,2 hPa 0,0 mm 3,6 km/h (1 Bft) W-NW 292 3,8 C 8,3 km/h (2 Bft)
18.10.2015 14:01 5,6 C 5,5 C 88 % 1015,2 hPa 0,0 mm 3,6 km/h (1 Bft) W-NW 292 3,8 C 8,3 km/h (2 Bft)
18.10.2015 14:05 5,5 C 5,4 C 88 % 1015,2 hPa 0,0 mm 3,4 km/h (1 Bft) NW 315 3,7 C 3,9 km/h (1 Bft)
18.10.2015 14:10 5,4 C 5,3 C 88 % 1015,5 hPa 0,0 mm 4,1 km/h (1 Bft) NW 315 3,6 C 11,7 km/h (2 Bft)
18.10.2015 14:15 5,4 C 5,3 C 88 % 1015,5 hPa 0,0 mm 3,9 km/h (1 Bft) W-SW 247 3,6 C 0,0 km/h (0 Bft)
18.10.2015 14:20 5,3 C 5,3 C 88 % 1015,5 hPa 0,7 mm 2,3 km/h (1 Bft) W 270 3,5 C 0,0 km/h (0 Bft)
18.10.2015 14:25 5,3 C 5,3 C 87 % 1015,5 hPa 0,0 mm 0,0 km/h (0 Bft) W-SW 247 3,3 C 0,0 km/h (0 Bft)
18.10.2015 14:30 5,3 C 5,2 C 88 % 1015,6 hPa 0,0 mm 0,5 km/h (0 Bft) S 180 3,5 C 0,0 km/h (0 Bft)
18.10.2015 14:35 5,2 C 5,1 C 88 % 1015,6 hPa 0,7 mm 1,3 km/h (1 Bft) W-NW 292 3,4 C 3,9 km/h (1 Bft)
18.10.2015 14:40 5,1 C 5,0 C 88 % 1015,6 hPa 0,0 mm 2,1 km/h (1 Bft) W 270 3,3 C 6,7 km/h (2 Bft)
18.10.2015 14:45 5,0 C 5,0 C 87 % 1015,6 hPa 0,0 mm 2,6 km/h (1 Bft) W-NW 292 3,0 C 3,4 km/h (1 Bft)
18.10.2015 14:50 5,0 C 4,9 C 88 % 1015,9 hPa 0,0 mm 2,6 km/h (1 Bft) NW 315 3,2 C 0,0 km/h (0 Bft)
18.10.2015 14:55 4,9 C 4,9 C 88 % 1015,9 hPa 0,7 mm 1,8 km/h (1 Bft) W 270 3,1 C 0,0 km/h (0 Bft)
18.10.2015 15:00 4,9 C 4,8 C 89 % 1015,9 hPa 0,0 mm 1,8 km/h (1 Bft) W-SW 247 3,2 C 0,0 km/h (0 Bft)
18.10.2015 15:05 4,8 C 4,8 C 88 % 1015,9 hPa 0,0 mm 3,4 km/h (1 Bft) N-NW 337 3,0 C 5,4 km/h (1 Bft)
18.10.2015 15:10 4,8 C 4,8 C 88 % 1015,8 hPa 0,7 mm 3,9 km/h (1 Bft) W 270 3,0 C 14,0 km/h (3 Bft)
18.10.2015 15:15 4,6 C 4,6 C 88 % 1015,8 hPa 0,0 mm 4,4 km/h (1 Bft) W 270 2,8 C 7,3 km/h (2 Bft)
18.10.2015 15:20 4,5 C 4,5 C 87 % 1015,8 hPa 0,0 mm 3,1 km/h (1 Bft) W-NW 292 2,5 C 3,4 km/h (1 Bft)
18.10.2015 15:25 4,4 C 4,5 C 87 % 1015,8 hPa 0,0 mm 2,8 km/h (1 Bft) SW 225 2,4 C 5,4 km/h (1 Bft)
18.10.2015 15:30 4,4 C 4,4 C 87 % 1015,8 hPa 0,0 mm 2,6 km/h (1 Bft) W-SW 247 2,4 C 0,0 km/h (0 Bft)
18.10.2015 15:35 4,3 C 4,4 C 87 % 1015,8 hPa 0,0 mm 3,9 km/h (1 Bft) W 270 2,3 C 3,6 km/h (1 Bft)
18.10.2015 15:40 4,3 C 4,4 C 87 % 1015,8 hPa 0,0 mm 3,6 km/h (1 Bft) S 180 2,3 C 14,5 km/h (3 Bft)
18.10.2015 15:45 4,3 C 4,4 C 87 % 1015,8 hPa 0,7 mm 2,8 km/h (1 Bft) S-SW 202 2,3 C 5,4 km/h (1 Bft)
18.10.2015 15:50 4,4 C 4,6 C 87 % 1015,8 hPa 0,0 mm 2,6 km/h (1 Bft) W-SW 247 2,4 C 6,2 km/h (2 Bft)
18.10.2015 15:55 4,4 C 4,9 C 87 % 1015,8 hPa 0,0 mm 2,1 km/h (1 Bft) W-SW 247 2,4 C 0,0 km/h (0 Bft)
18.10.2015 16:00 4,4 C 4,8 C 87 % 1015,8 hPa 0,0 mm 2,3 km/h (1 Bft) W 270 2,4 C 3,6 km/h (1 Bft)
18.10.2015 16:05 4,4 C 4,7 C 87 % 1015,8 hPa 0,0 mm 3,4 km/h (1 Bft) SW 225 2,4 C 5,2 km/h (1 Bft)
18.10.2015 16:10 4,4 C 4,8 C 87 % 1016,1 hPa 0,0 mm 2,8 km/h (1 Bft) W-SW 247 2,4 C 2,8 km/h (1 Bft)
18.10.2015 16:15 4,4 C 4,7 C 87 % 1016,1 hPa 0,0 mm 1,6 km/h (1 Bft) W-SW 247 2,4 C 0,0 km/h (0 Bft)
18.10.2015 16:20 4,4 C 4,7 C 87 % 1016,1 hPa 0,0 mm 0,5 km/h (0 Bft) O 90 2,4 C 0,0 km/h (0 Bft)
18.10.2015 16:25 4,5 C 4,8 C 87 % 1016,1 hPa 0,0 mm 0,0 km/h (0 Bft) NW 315 2,5 C 3,1 km/h (1 Bft)
18.10.2015 16:30 4,5 C 4,8 C 87 % 1016,1 hPa 0,0 mm 0,3 km/h (0 Bft) W-NW 292 2,5 C 0,0 km/h (0 Bft)
18.10.2015 16:35 4,6 C 4,8 C 87 % 1016,1 hPa 0,0 mm 0,5 km/h (0 Bft) S 180 2,6 C 0,0 km/h (0 Bft)
18.10.2015 16:40 4,6 C 4,8 C 87 % 1016,1 hPa 0,0 mm 0,3 km/h (0 Bft) S 180 2,6 C 0,0 km/h (0 Bft)
18.10.2015 16:45 4,6 C 4,8 C 87 % 1016,1 hPa 0,0 mm 0,0 km/h (0 Bft) S 180 2,6 C 0,0 km/h (0 Bft)
18.10.2015 16:50 4,6 C 5,0 C 87 % 1015,9 hPa 0,0 mm 0,0 km/h (0 Bft) NW 315 2,6 C 0,0 km/h (0 Bft)
18.10.2015 16:55 4,8 C 5,0 C 88 % 1015,9 hPa 0,0 mm 0,3 km/h (0 Bft) W-SW 247 3,0 C 0,0 km/h (0 Bft)
18.10.2015 17:00 4,8 C 4,9 C 87 % 1015,9 hPa 0,0 mm 0,3 km/h (0 Bft) W-SW 247 2,8 C 0,0 km/h (0 Bft)
18.10.2015 17:05 4,8 C 4,9 C 87 % 1015,9 hPa 0,0 mm 0,0 km/h (0 Bft) W 270 2,8 C 0,0 km/h (0 Bft)
18.10.2015 17:10 4,8 C 4,8 C 87 % 1015,8 hPa 0,0 mm 0,0 km/h (0 Bft) S 180 2,8 C 0,0 km/h (0 Bft)
18.10.2015 17:15 4,8 C 4,7 C 89 % 1015,8 hPa 0,0 mm 0,5 km/h (0 Bft) NW 315 3,1 C 0,0 km/h (0 Bft)
18.10.2015 17:20 4,8 C 4,8 C 87 % 1015,8 hPa 0,0 mm 0,5 km/h (0 Bft) NW 315 2,8 C 0,0 km/h (0 Bft)
18.10.2015 17:25 4,8 C 4,8 C 87 % 1015,8 hPa 0,0 mm 0,0 km/h (0 Bft) W 270 2,8 C 0,0 km/h (0 Bft)
18.10.2015 17:30 4,8 C 4,8 C 87 % 1016,1 hPa 0,0 mm 0,3 km/h (0 Bft) S 180 2,8 C 0,0 km/h (0 Bft)
18.10.2015 17:35 4,6 C 4,6 C 87 % 1016,1 hPa 0,0 mm 0,5 km/h (0 Bft) S 180 2,6 C 0,0 km/h (0 Bft)
18.10.2015 17:40 4,5 C 4,6 C 87 % 1016,1 hPa 0,0 mm 0,3 km/h (0 Bft) S-SO 157 2,5 C 0,0 km/h (0 Bft)
18.10.2015 17:45 4,5 C 4,5 C 87 % 1016,1 hPa 0,0 mm 0,0 km/h (0 Bft) SO 135 2,5 C 0,0 km/h (0 Bft)
18.10.2015 17:50 4,5 C 4,5 C 87 % 1015,9 hPa 0,0 mm 0,0 km/h (0 Bft) O-SO 112 2,5 C 0,0 km/h (0 Bft)
18.10.2015 17:55 4,5 C 4,5 C 87 % 1015,9 hPa 0,0 mm 0,3 km/h (0 Bft) W-SW 247 2,5 C 3,4 km/h (1 Bft)
18.10.2015 18:00 4,5 C 4,4 C 87 % 1015,9 hPa 0,0 mm 0,5 km/h (0 Bft) SW 225 2,5 C 0,0 km/h (0 Bft)
18.10.2015 18:05 4,3 C 4,3 C 87 % 1015,9 hPa 0,0 mm 1,0 km/h (0 Bft) SW 225 2,3 C 4,4 km/h (1 Bft)
18.10.2015 18:10 4,3 C 4,2 C 89 % 1015,9 hPa 0,0 mm 1,6 km/h (1 Bft) S 180 2,7 C 3,9 km/h (1 Bft)
18.10.2015 18:15 4,2 C 4,1 C 87 % 1015,9 hPa 0,0 mm 2,3 km/h (1 Bft) S-SW 202 2,2 C 3,1 km/h (1 Bft)
18.10.2015 18:20 4,2 C 4,0 C 89 % 1015,9 hPa 0,0 mm 2,6 km/h (1 Bft) S-SW 202 2,6 C 4,7 km/h (1 Bft)
18.10.2015 18:25 4,2 C 4,0 C 89 % 1015,9 hPa 0,0 mm 2,8 km/h (1 Bft) SO 135 2,6 C 0,0 km/h (0 Bft)
18.10.2015 18:30 4,2 C 4,0 C 89 % 1015,9 hPa 0,0 mm 2,1 km/h (1 Bft) S-SO 157 2,6 C 0,0 km/h (0 Bft)
18.10.2015 18:35 4,1 C 4,0 C 88 % 1015,9 hPa 0,0 mm 0,5 km/h (0 Bft) S 180 2,3 C 0,0 km/h (0 Bft)
18.10.2015 18:40 4,1 C 3,9 C 90 % 1015,9 hPa 0,0 mm 1,0 km/h (0 Bft) S 180 2,6 C 3,6 km/h (1 Bft)
18.10.2015 18:45 4,1 C 3,9 C 90 % 1015,9 hPa 0,0 mm 1,3 km/h (1 Bft) W-SW 247 2,6 C 0,0 km/h (0 Bft)
18.10.2015 18:50 4,1 C 3,9 C 90 % 1016,0 hPa 0,0 mm 1,0 km/h (0 Bft) S-SO 157 2,6 C 0,0 km/h (0 Bft)
18.10.2015 18:55 4,1 C 3,9 C 90 % 1016,0 hPa 0,0 mm 0,0 km/h (0 Bft) S 180 2,6 C 2,6 km/h (1 Bft)
18.10.2015 19:00 4,1 C 4,0 C 90 % 1016,0 hPa 0,0 mm 0,5 km/h (0 Bft) S 180 2,6 C 2,6 km/h (1 Bft)
18.10.2015 19:05 4,1 C 4,0 C 88 % 1016,0 hPa 0,0 mm 1,0 km/h (0 Bft) S 180 2,3 C 0,0 km/h (0 Bft)
18.10.2015 19:10 4,1 C 4,0 C 91 % 1016,1 hPa 0,0 mm 1,3 km/h (1 Bft) S 180 2,8 C 3,9 km/h (1 Bft)
18.10.2015 19:15 4,1 C 4,0 C 91 % 1016,1 hPa 0,0 mm 1,3 km/h (1 Bft) S-SO 157 2,8 C 0,0 km/h (0 Bft)
18.10.2015 19:20 4,1 C 3,9 C 91 % 1016,1 hPa 0,0 mm 0,5 km/h (0 Bft) S-SO 157 2,8 C 0,0 km/h (0 Bft)
18.10.2015 19:25 4,1 C 3,9 C 91 % 1016,1 hPa 0,0 mm 0,0 km/h (0 Bft) SO 135 2,8 C 0,0 km/h (0 Bft)
18.10.2015 19:30 4,1 C 4,0 C 91 % 1016,0 hPa 0,0 mm 0,0 km/h (0 Bft) SO 135 2,8 C 0,0 km/h (0 Bft)
18.10.2015 19:35 4,1 C 4,0 C 91 % 1016,0 hPa 0,0 mm 0,3 km/h (0 Bft) S 180 2,8 C 0,0 km/h (0 Bft)
18.10.2015 19:40 4,1 C 4,0 C 91 % 1016,0 hPa 0,0 mm 0,3 km/h (0 Bft) S 180 2,8 C 0,0 km/h (0 Bft)
18.10.2015 19:45 4,0 C 4,0 C 88 % 1016,0 hPa 0,0 mm 0,3 km/h (0 Bft) S-SO 157 2,2 C 0,0 km/h (0 Bft)
18.10.2015 19:50 4,1 C 4,0 C 91 % 1016,0 hPa 0,0 mm 0,0 km/h (0 Bft) S-SO 157 2,8 C 0,0 km/h (0 Bft)
18.10.2015 19:55 4,1 C 3,9 C 91 % 1016,0 hPa 0,0 mm 0,3 km/h (0 Bft) S-SO 157 2,8 C 3,4 km/h (1 Bft)
18.10.2015 19:59 4,0 C 3,9 C 88 % 1016,0 hPa 0,0 mm 0,5 km/h (0 Bft) SO 135 2,2 C 0,0 km/h (0 Bft)
18.10.2015 20:01 4,0 C 3,9 C 88 % 1016,0 hPa 0,0 mm 0,5 km/h (0 Bft) SO 135 2,2 C 0,0 km/h (0 Bft)
18.10.2015 20:05 4,0 C 4,0 C 88 % 1016,0 hPa 0,0 mm 0,5 km/h (0 Bft) S-SO 157 2,2 C 0,0 km/h (0 Bft)
18.10.2015 20:10 4,0 C 4,0 C 88 % 1015,6 hPa 0,0 mm 0,3 km/h (0 Bft) S 180 2,2 C 0,0 km/h (0 Bft)
18.10.2015 20:15 4,0 C 4,0 C 88 % 1015,6 hPa 0,0 mm 0,5 km/h (0 Bft) SO 135 2,2 C 0,0 km/h (0 Bft)
18.10.2015 20:20 4,0 C 4,0 C 88 % 1015,6 hPa 0,0 mm 0,3 km/h (0 Bft) SO 135 2,2 C 0,0 km/h (0 Bft)
18.10.2015 20:25 4,1 C 4,0 C 92 % 1015,6 hPa 0,0 mm 0,0 km/h (0 Bft) S 180 2,9 C 0,0 km/h (0 Bft)
18.10.2015 20:30 4,1 C 4,0 C 92 % 1016,0 hPa 0,0 mm 0,0 km/h (0 Bft) S 180 2,9 C 0,0 km/h (0 Bft)
18.10.2015 20:35 4,1 C 4,0 C 92 % 1016,0 hPa 0,0 mm 0,0 km/h (0 Bft) S-SO 157 2,9 C 0,0 km/h (0 Bft)
18.10.2015 20:40 4,1 C 4,0 C 92 % 1016,0 hPa 0,0 mm 0,0 km/h (0 Bft) SO 135 2,9 C 0,0 km/h (0 Bft)
18.10.2015 20:45 4,1 C 4,0 C 92 % 1016,0 hPa 0,0 mm 0,0 km/h (0 Bft) SO 135 2,9 C 0,0 km/h (0 Bft)
18.10.2015 20:50 4,1 C 4,0 C 92 % 1015,9 hPa 0,0 mm 0,0 km/h (0 Bft) S 180 2,9 C 0,0 km/h (0 Bft)
18.10.2015 20:55 4,1 C 4,0 C 92 % 1015,9 hPa 0,0 mm 0,0 km/h (0 Bft) S-SW 202 2,9 C 0,0 km/h (0 Bft)
18.10.2015 21:00 4,1 C 4,0 C 88 % 1015,9 hPa 0,0 mm 0,0 km/h (0 Bft) SW 225 2,3 C 0,0 km/h (0 Bft)
18.10.2015 21:05 4,1 C 4,1 C 88 % 1015,9 hPa 0,0 mm 0,0 km/h (0 Bft) SW 225 2,3 C 0,0 km/h (0 Bft)
18.10.2015 21:10 4,1 C 4,1 C 88 % 1015,8 hPa 0,0 mm 0,0 km/h (0 Bft) S 180 2,3 C 0,0 km/h (0 Bft)
18.10.2015 21:15 4,1 C 4,1 C 89 % 1015,8 hPa 0,0 mm 0,0 km/h (0 Bft) S 180 2,5 C 0,0 km/h (0 Bft)
18.10.2015 21:20 4,2 C 4,1 C 92 % 1015,8 hPa 0,0 mm 0,0 km/h (0 Bft) SO 135 3,0 C 0,0 km/h (0 Bft)
18.10.2015 21:25 4,2 C 4,2 C 89 % 1015,8 hPa 0,0 mm 0,0 km/h (0 Bft) SW 225 2,6 C 0,0 km/h (0 Bft)
18.10.2015 21:30 4,2 C 4,2 C 89 % 1015,9 hPa 0,0 mm 0,0 km/h (0 Bft) SW 225 2,6 C 0,0 km/h (0 Bft)
18.10.2015 21:35 4,3 C 4,2 C 92 % 1015,9 hPa 0,0 mm 0,0 km/h (0 Bft) W-SW 247 3,1 C 0,0 km/h (0 Bft)
18.10.2015 21:40 4,3 C 4,2 C 92 % 1015,9 hPa 0,0 mm 0,0 km/h (0 Bft) W-SW 247 3,1 C 0,0 km/h (0 Bft)
18.10.2015 21:45 4,3 C 4,2 C 92 % 1015,9 hPa 0,0 mm 0,0 km/h (0 Bft) W-SW 247 3,1 C 0,0 km/h (0 Bft)
18.10.2015 21:50 4,3 C 4,2 C 92 % 1016,1 hPa 0,0 mm 0,0 km/h (0 Bft) N-NO 22 3,1 C 0,0 km/h (0 Bft)
18.10.2015 21:55 4,3 C 4,2 C 92 % 1016,1 hPa 0,0 mm 0,5 km/h (0 Bft) N 360 3,1 C 0,0 km/h (0 Bft)
18.10.2015 22:00 4,3 C 4,3 C 89 % 1016,1 hPa 0,0 mm 0,8 km/h (0 Bft) N-NW 337 2,7 C 3,1 km/h (1 Bft)
18.10.2015 22:05 4,3 C 4,2 C 92 % 1016,1 hPa 0,0 mm 0,8 km/h (0 Bft) N 360 3,1 C 4,1 km/h (1 Bft)
18.10.2015 22:10 4,3 C 4,3 C 89 % 1015,9 hPa 0,0 mm 0,8 km/h (0 Bft) NO 45 2,7 C 0,0 km/h (0 Bft)
18.10.2015 22:15 4,3 C 4,3 C 89 % 1015,9 hPa 0,0 mm 1,0 km/h (0 Bft) N-NW 337 2,7 C 0,0 km/h (0 Bft)
18.10.2015 22:20 4,3 C 4,3 C 89 % 1015,9 hPa 0,0 mm 0,8 km/h (0 Bft) NO 45 2,7 C 0,0 km/h (0 Bft)
18.10.2015 22:25 4,3 C 4,3 C 89 % 1015,9 hPa 0,0 mm 0,3 km/h (0 Bft) O-SO 112 2,7 C 0,0 km/h (0 Bft)
18.10.2015 22:30 4,3 C 4,2 C 92 % 1016,0 hPa 0,0 mm 0,5 km/h (0 Bft) S 180 3,1 C 4,1 km/h (1 Bft)
18.10.2015 22:35 4,3 C 4,2 C 92 % 1016,0 hPa 0,0 mm 1,0 km/h (0 Bft) N-NW 337 3,1 C 3,1 km/h (1 Bft)
18.10.2015 22:40 4,3 C 4,2 C 92 % 1016,0 hPa 0,0 mm 1,8 km/h (1 Bft) N-NO 22 3,1 C 4,4 km/h (1 Bft)
18.10.2015 22:45 4,3 C 4,2 C 92 % 1016,0 hPa 0,0 mm 1,8 km/h (1 Bft) SW 225 3,1 C 2,6 km/h (1 Bft)
18.10.2015 22:50 4,3 C 4,2 C 92 % 1015,9 hPa 0,0 mm 0,8 km/h (0 Bft) N-NW 337 3,1 C 0,0 km/h (0 Bft)
18.10.2015 22:55 4,3 C 4,2 C 89 % 1015,9 hPa 0,0 mm 0,0 km/h (0 Bft) O 90 2,7 C 0,0 km/h (0 Bft)
18.10.2015 23:00 4,3 C 4,3 C 89 % 1015,9 hPa 0,0 mm 0,0 km/h (0 Bft) O 90 2,7 C 0,0 km/h (0 Bft)
18.10.2015 23:05 4,3 C 4,3 C 89 % 1015,9 hPa 0,0 mm 0,0 km/h (0 Bft) O-NO 67 2,7 C 0,0 km/h (0 Bft)
18.10.2015 23:10 4,3 C 4,3 C 89 % 1016,1 hPa 0,0 mm 0,0 km/h (0 Bft) N-NO 22 2,7 C 0,0 km/h (0 Bft)
18.10.2015 23:15 4,3 C 4,3 C 89 % 1016,1 hPa 0,0 mm 0,5 km/h (0 Bft) N-NO 22 2,7 C 5,4 km/h (1 Bft)
18.10.2015 23:20 4,3 C 4,3 C 89 % 1016,1 hPa 0,0 mm 1,8 km/h (1 Bft) NW 315 2,7 C 3,9 km/h (1 Bft)
18.10.2015 23:25 4,3 C 4,3 C 89 % 1016,1 hPa 0,0 mm 2,6 km/h (1 Bft) O-NO 67 2,7 C 3,1 km/h (1 Bft)
18.10.2015 23:30 4,3 C 4,2 C 92 % 1015,9 hPa 0,0 mm 1,8 km/h (1 Bft) N-NO 22 3,1 C 0,0 km/h (0 Bft)
18.10.2015 23:35 4,3 C 4,2 C 92 % 1015,9 hPa 0,0 mm 0,8 km/h (0 Bft) N-NO 22 3,1 C 0,0 km/h (0 Bft)
18.10.2015 23:40 4,3 C 4,2 C 92 % 1015,9 hPa 0,0 mm 0,3 km/h (0 Bft) N-NW 337 3,1 C 0,0 km/h (0 Bft)
18.10.2015 23:45 4,3 C 4,2 C 92 % 1015,9 hPa 0,0 mm 0,5 km/h (0 Bft) N 360 3,1 C 0,0 km/h (0 Bft)
18.10.2015 23:50 4,3 C 4,2 C 92 % 1016,0 hPa 0,0 mm 0,5 km/h (0 Bft) O-NO 67 3,1 C 0,0 km/h (0 Bft)
18.10.2015 23:55 4,3 C 4,2 C 92 % 1016,0 hPa 0,0 mm 0,5 km/h (0 Bft) N-NW 337 3,1 C 0,0 km/h (0 Bft)
_ Min-Zeit 05:25 04:20 18:15 04:45 - 23:10 - - 00:20 23:55
Minimum _ 3,7 C 3,6 C 87 % 1014,8 hPa - 0,0 km/h (0 Bft) - - 2,0 C 0,0 km/h (0 Bft)
_ Max-Zeit 13:10 13:10 08:40 23:25 15:45 13:45 - - 13:10 15:40
Maximum _ 6,1 C 6,4 C 93 % 1016,1 hPa 0,7 mm 4,9 km/h
NW (1 Bft)
- - 4,3 C 14,5 km/h
S (3 Bft)
Durchschnitt _ 4,4 C 4,4 C 89 % 1015,5 hPa #8,2 mm 0,6 km/h (0 Bft) W - 2,8 C 0,9 km/h (0 Bft)